Time;durP1;ratioP1;P1;durP2;ratioP2;P2;SDS_P1;SDS_P2;PMS_P1;PMS_P2;Temp;Humidity;BMP_temperature;BMP_pressure;BME280_temperature;BME280_humidity;BME280_pressure;Samples;Min_cycle;Max_cycle;Signal;HPM_P1;HPM_P2
2023/06/22 00:02:08;;;;;;;15.60;8.47;;;22.90;76.70;;;;;;5050623;28;20424;-74
2023/06/22 00:04:34;;;;;;;11.73;8.10;;;22.80;77.00;;;;;;5042900;28;20233;-74
2023/06/22 00:06:59;;;;;;;12.80;8.80;;;22.80;77.60;;;;;;5035683;28;20480;-75
2023/06/22 00:09:25;;;;;;;14.47;9.23;;;22.80;77.70;;;;;;5048138;28;20181;-74
2023/06/22 00:11:50;;;;;;;11.40;8.23;;;22.70;77.40;;;;;;5036512;28;20192;-75
2023/06/22 00:14:16;;;;;;;14.90;9.50;;;22.70;77.80;;;;;;5049091;28;20202;-74
2023/06/22 00:16:42;;;;;;;14.03;8.60;;;22.70;77.80;;;;;;5047341;28;20267;-73
2023/06/22 00:19:11;;;;;;;13.27;8.77;;;22.70;78.00;;;;;;5042140;28;20220;-75
2023/06/22 00:21:38;;;;;;;12.77;8.30;;;22.70;78.00;;;;;;5048318;28;21006;-76
2023/06/22 00:24:04;;;;;;;13.00;8.40;;;22.70;78.00;;;;;;5043410;28;20474;-76
2023/06/22 00:26:29;;;;;;;13.30;8.63;;;22.70;77.80;;;;;;5048049;28;20904;-73
2023/06/22 00:28:55;;;;;;;18.03;8.80;;;22.70;78.00;;;;;;5047980;28;20431;-73
2023/06/22 00:31:20;;;;;;;13.10;8.67;;;22.70;78.00;;;;;;5045398;28;20183;-74
2023/06/22 00:33:46;;;;;;;14.17;9.27;;;22.70;77.80;;;;;;5046256;28;20205;-75
2023/06/22 00:36:16;;;;;;;11.63;8.13;;;22.60;78.30;;;;;;5045456;28;20209;-75
2023/06/22 00:38:41;;;;;;;14.17;8.37;;;22.60;78.30;;;;;;5046774;28;20520;-76
2023/06/22 00:41:07;;;;;;;13.20;8.90;;;22.60;78.40;;;;;;5050453;28;20462;-73
2023/06/22 00:43:32;;;;;;;19.40;8.53;;;22.60;78.60;;;;;;5034082;28;20218;-74
2023/06/22 00:45:58;;;;;;;14.77;8.60;;;22.60;78.60;;;;;;5045652;28;20301;-74
2023/06/22 00:48:24;;;;;;;13.40;8.30;;;22.60;78.60;;;;;;5050587;28;20206;-74
2023/06/22 00:50:51;;;;;;;14.80;9.50;;;22.50;78.70;;;;;;5045051;28;20194;-74
2023/06/22 00:53:17;;;;;;;17.40;9.23;;;22.40;79.00;;;;;;5043458;28;20919;-73
2023/06/22 00:55:46;;;;;;;15.83;9.43;;;22.40;79.20;;;;;;5043501;28;20474;-75
2023/06/22 00:58:12;;;;;;;14.53;8.97;;;22.40;79.00;;;;;;5051087;28;20504;-75
2023/06/22 01:00:39;;;;;;;14.10;9.50;;;22.40;79.20;;;;;;5043677;28;20480;-75
2023/06/22 01:03:08;;;;;;;14.27;9.00;;;22.40;79.50;;;;;;5051605;28;20501;-75
2023/06/22 01:05:35;;;;;;;16.20;9.23;;;22.40;79.50;;;;;;5042775;28;20480;-73
2023/06/22 01:08:11;;;;;;;15.70;8.90;;;22.50;79.00;;;;;;5050410;28;20419;-74
2023/06/22 01:11:02;;;;;;;20.60;10.70;;;22.40;79.20;;;;;;5043619;28;20433;-75
2023/06/22 01:13:45;;;;;;;14.97;9.00;;;22.30;79.20;;;;;;5043840;28;20480;-75
2023/06/22 01:16:23;;;;;;;15.83;10.13;;;22.20;79.70;;;;;;5044884;28;20489;-74
2023/06/22 01:18:53;;;;;;;16.17;9.67;;;22.10;80.20;;;;;;5042241;28;20521;-74
2023/06/22 01:21:20;;;;;;;18.23;9.87;;;22.00;80.80;;;;;;5028282;28;20513;-75
2023/06/22 01:24:16;;;;;;;14.00;9.33;;;21.90;81.10;;;;;;5039789;28;20500;-75
2023/06/22 01:26:43;;;;;;;17.07;10.10;;;21.90;81.20;;;;;;5049887;28;20534;-73
2023/06/22 01:29:13;;;;;;;16.47;10.23;;;21.90;81.40;;;;;;5045001;28;21224;-75
2023/06/22 01:31:40;;;;;;;14.13;9.40;;;22.00;81.40;;;;;;5046714;28;20434;-73
2023/06/22 01:34:08;;;;;;;14.50;9.73;;;22.00;81.20;;;;;;5041664;28;20451;-74
2023/06/22 01:36:35;;;;;;;14.10;8.00;;;22.00;81.10;;;;;;5047793;28;20461;-73
2023/06/22 01:39:03;;;;;;;15.37;9.30;;;22.00;81.10;;;;;;5026524;28;20434;-73
2023/06/22 01:41:31;;;;;;;16.83;9.23;;;21.90;80.90;;;;;;5048638;28;20823;-76
2023/06/22 01:43:57;;;;;;;18.73;8.83;;;21.90;81.40;;;;;;5044866;28;20459;-74
2023/06/22 01:46:23;;;;;;;13.70;8.30;;;21.80;81.70;;;;;;5046723;28;21013;-76
2023/06/22 01:48:50;;;;;;;16.53;9.10;;;21.80;81.80;;;;;;5045412;28;20435;-71
2023/06/22 01:51:15;;;;;;;12.80;8.60;;;21.80;81.80;;;;;;5058199;28;20187;-74
2023/06/22 01:53:42;;;;;;;14.37;9.07;;;21.70;81.90;;;;;;5053976;28;20472;-74
2023/06/22 01:56:08;;;;;;;14.80;8.97;;;21.70;82.10;;;;;;5053419;28;20211;-73
2023/06/22 01:58:38;;;;;;;15.80;8.97;;;21.70;82.10;;;;;;5055577;28;20924;-76
2023/06/22 02:01:09;;;;;;;15.87;9.20;;;21.70;82.20;;;;;;5040317;28;20426;-75
2023/06/22 02:03:40;;;;;;;16.90;9.40;;;21.80;81.90;;;;;;5029094;28;20519;-74
2023/06/22 02:06:10;;;;;;;16.73;8.83;;;21.80;81.80;;;;;;5030551;28;20947;-73
2023/06/22 02:08:41;;;;;;;16.20;8.70;;;21.80;81.70;;;;;;5027344;28;20442;-76
2023/06/22 02:11:10;;;;;;;10.77;7.53;;;21.80;81.70;;;;;;5040619;28;20894;-74
2023/06/22 02:13:37;;;;;;;15.37;9.40;;;21.80;81.70;;;;;;5049144;28;20522;-72
2023/06/22 02:16:03;;;;;;;14.53;8.80;;;21.70;81.80;;;;;;5043218;28;20472;-75
2023/06/22 02:18:29;;;;;;;13.83;8.87;;;21.70;81.90;;;;;;5044793;28;20429;-73
2023/06/22 02:20:54;;;;;;;17.30;8.70;;;21.70;81.90;;;;;;5044279;28;20479;-74
2023/06/22 02:23:20;;;;;;;16.13;9.30;;;21.60;82.10;;;;;;5045387;28;20187;-71
2023/06/22 02:25:46;;;;;;;15.03;8.47;;;21.60;82.40;;;;;;5043946;28;20203;-72
2023/06/22 02:28:11;;;;;;;15.60;9.37;;;21.50;82.80;;;;;;5046765;28;20184;-72
2023/06/22 02:30:37;;;;;;;15.03;8.70;;;21.50;82.70;;;;;;5043766;28;20191;-72
2023/06/22 02:33:02;;;;;;;14.63;8.97;;;21.50;82.80;;;;;;5046168;28;20191;-73
2023/06/22 02:35:35;;;;;;;12.97;8.80;;;21.50;83.00;;;;;;5042681;28;20314;-72
2023/06/22 02:38:01;;;;;;;14.00;9.13;;;21.50;83.00;;;;;;5044732;28;20184;-73
2023/06/22 02:40:29;;;;;;;17.40;9.80;;;21.40;83.00;;;;;;5032781;28;20429;-73
2023/06/22 02:42:54;;;;;;;12.97;9.03;;;21.30;83.30;;;;;;5044235;28;20445;-72
2023/06/22 02:45:20;;;;;;;16.43;10.00;;;21.30;83.60;;;;;;5028497;28;21012;-72
2023/06/22 02:47:47;;;;;;;19.40;10.13;;;21.20;83.80;;;;;;5045912;28;20188;-72
2023/06/22 02:50:13;;;;;;;12.17;8.47;;;21.20;84.10;;;;;;5029624;28;20191;-75
2023/06/22 02:52:39;;;;;;;15.20;9.07;;;21.20;84.10;;;;;;5046246;28;20837;-73
2023/06/22 02:55:07;;;;;;;16.30;9.93;;;21.20;84.10;;;;;;5043824;28;20551;-73
2023/06/22 02:57:32;;;;;;;17.23;9.67;;;21.20;84.10;;;;;;5039169;28;20203;-72
2023/06/22 02:59:58;;;;;;;15.97;9.87;;;21.20;84.10;;;;;;5049580;28;20425;-75
2023/06/22 03:02:26;;;;;;;18.83;9.93;;;21.10;84.10;;;;;;5041803;28;20209;-71
2023/06/22 03:04:53;;;;;;;12.87;9.00;;;21.00;84.40;;;;;;5051619;28;20833;-73
2023/06/22 03:07:20;;;;;;;18.33;10.13;;;21.00;84.70;;;;;;5049380;28;20920;-71
2023/06/22 03:09:45;;;;;;;14.13;9.20;;;21.00;85.00;;;;;;5046501;28;20454;-71
2023/06/22 03:12:11;;;;;;;16.80;10.33;;;21.00;84.90;;;;;;5043651;28;20920;-74
2023/06/22 03:14:38;;;;;;;16.03;9.93;;;21.00;85.00;;;;;;5046303;28;20452;-73
2023/06/22 03:17:04;;;;;;;16.20;9.90;;;21.00;85.00;;;;;;5038432;28;20226;-72
2023/06/22 03:19:31;;;;;;;16.07;10.73;;;21.00;84.70;;;;;;5045750;28;20463;-73
2023/06/22 03:21:59;;;;;;;15.83;10.30;;;21.00;84.90;;;;;;5042833;28;20432;-74
2023/06/22 03:24:25;;;;;;;20.87;11.30;;;21.00;84.90;;;;;;5019863;28;20463;-73
2023/06/22 03:26:50;;;;;;;16.20;9.53;;;21.00;84.90;;;;;;5048677;28;20438;-73
2023/06/22 03:29:16;;;;;;;17.23;10.77;;;20.90;85.00;;;;;;5046488;28;20191;-72
2023/06/22 03:31:42;;;;;;;19.17;9.67;;;20.90;85.00;;;;;;5041079;28;20191;-74
2023/06/22 03:34:07;;;;;;;18.37;10.80;;;20.80;85.50;;;;;;5040412;28;20225;-73
2023/06/22 03:36:33;;;;;;;19.90;10.77;;;20.80;85.50;;;;;;5038677;28;20214;-72
2023/06/22 03:38:58;;;;;;;17.57;10.30;;;20.80;85.50;;;;;;5046586;28;20199;-72
2023/06/22 03:41:25;;;;;;;17.73;11.47;;;20.80;85.60;;;;;;5051213;28;20236;-72
2023/06/22 03:43:50;;;;;;;20.23;10.57;;;20.80;85.70;;;;;;5032869;28;20564;-73
2023/06/22 03:46:16;;;;;;;16.93;9.80;;;20.70;85.90;;;;;;5051556;28;20448;-75
2023/06/22 03:48:42;;;;;;;17.40;9.40;;;20.80;85.90;;;;;;5030017;28;20661;-72
2023/06/22 03:51:07;;;;;;;15.30;9.83;;;20.80;85.70;;;;;;5036879;28;20194;-72
2023/06/22 03:53:33;;;;;;;15.60;9.37;;;20.80;85.60;;;;;;5039232;28;20653;-73
2023/06/22 03:55:59;;;;;;;19.50;10.70;;;20.80;85.60;;;;;;5028783;28;20263;-74
2023/06/22 03:58:24;;;;;;;13.80;9.60;;;20.80;85.50;;;;;;5040740;28;20223;-73
2023/06/22 04:00:52;;;;;;;15.90;9.30;;;20.90;85.50;;;;;;5048589;28;20222;-71
2023/06/22 04:03:21;;;;;;;15.33;9.70;;;20.90;85.20;;;;;;5042947;28;20187;-71
2023/06/22 04:05:48;;;;;;;17.40;10.00;;;20.80;85.20;;;;;;5029438;28;20444;-73
2023/06/22 04:08:14;;;;;;;17.50;10.73;;;20.80;85.50;;;;;;5054585;28;20425;-73
2023/06/22 04:10:40;;;;;;;17.33;10.40;;;20.80;85.60;;;;;;5053058;28;20452;-73
2023/06/22 04:13:05;;;;;;;22.03;10.33;;;20.80;85.60;;;;;;5045432;28;20425;-73
2023/06/22 04:15:31;;;;;;;16.60;10.10;;;20.90;85.60;;;;;;5043002;28;20221;-72
2023/06/22 04:17:57;;;;;;;16.47;10.03;;;20.90;85.20;;;;;;5036899;28;20219;-73
2023/06/22 04:20:25;;;;;;;18.70;10.20;;;20.90;85.20;;;;;;5046548;28;20273;-73
2023/06/22 04:22:52;;;;;;;17.97;10.80;;;21.00;85.00;;;;;;5037970;28;20432;-72
2023/06/22 04:25:18;;;;;;;17.20;9.77;;;21.00;84.90;;;;;;5042239;28;20452;-73
2023/06/22 04:27:44;;;;;;;14.00;9.60;;;21.00;85.00;;;;;;5045974;28;21172;-74
2023/06/22 04:30:10;;;;;;;18.97;9.90;;;21.00;85.00;;;;;;5044873;28;20182;-73
2023/06/22 04:32:36;;;;;;;18.67;10.47;;;21.00;84.90;;;;;;5041395;28;20504;-74
2023/06/22 04:35:04;;;;;;;18.23;11.83;;;21.10;84.90;;;;;;5041943;28;20530;-73
2023/06/22 04:37:30;;;;;;;15.43;10.40;;;21.20;84.70;;;;;;5044200;28;20187;-76
2023/06/22 04:39:56;;;;;;;16.13;10.27;;;21.20;84.40;;;;;;5048957;28;20428;-74
2023/06/22 04:42:21;;;;;;;21.97;10.70;;;21.20;84.10;;;;;;5031415;28;20538;-73
2023/06/22 04:44:47;;;;;;;14.43;8.97;;;21.30;84.30;;;;;;5045014;28;20548;-74
2023/06/22 04:47:13;;;;;;;18.03;10.50;;;21.30;84.30;;;;;;5045733;28;20270;-73
2023/06/22 04:49:40;;;;;;;21.63;11.57;;;21.40;84.10;;;;;;5045994;28;20190;-73
2023/06/22 04:52:07;;;;;;;22.50;12.90;;;21.40;83.80;;;;;;5046525;28;20267;-74
2023/06/22 04:54:34;;;;;;;19.33;11.43;;;21.50;83.70;;;;;;5045503;28;20838;-73
2023/06/22 04:57:01;;;;;;;20.50;11.90;;;21.40;83.40;;;;;;5024282;28;20556;-73
2023/06/22 04:59:30;;;;;;;18.30;11.00;;;21.50;83.40;;;;;;5047031;28;20462;-72
2023/06/22 05:01:58;;;;;;;18.03;11.23;;;21.60;83.30;;;;;;5050198;28;20421;-73
2023/06/22 05:04:24;;;;;;;18.53;10.33;;;21.70;82.70;;;;;;5042808;28;20509;-72
2023/06/22 05:06:51;;;;;;;17.10;10.00;;;21.70;82.40;;;;;;5049076;28;20428;-72
2023/06/22 05:09:17;;;;;;;24.63;12.20;;;21.80;82.20;;;;;;5020679;28;20802;-74
2023/06/22 05:11:43;;;;;;;22.93;11.10;;;21.80;81.70;;;;;;5046350;28;20434;-73
2023/06/22 05:14:09;;;;;;;20.30;13.10;;;21.90;81.70;;;;;;5048371;28;20251;-72
2023/06/22 05:16:36;;;;;;;16.00;10.93;;;21.90;81.20;;;;;;5049121;28;20514;-74
2023/06/22 05:19:03;;;;;;;19.30;12.20;;;22.00;81.40;;;;;;5044472;28;20421;-73
2023/06/22 05:21:29;;;;;;;19.53;11.00;;;22.10;80.90;;;;;;5055612;28;20516;-75
2023/06/22 05:23:56;;;;;;;21.67;11.97;;;22.20;80.80;;;;;;5043895;28;20464;-76
2023/06/22 05:26:21;;;;;;;17.87;11.23;;;22.00;80.50;;;;;;5037641;28;20429;-71
2023/06/22 05:28:47;;;;;;;23.20;13.57;;;22.00;81.10;;;;;;5056261;28;20475;-72
2023/06/22 05:31:17;;;;;;;15.97;10.40;;;22.10;80.60;;;;;;5056177;28;20792;-72
2023/06/22 05:33:44;;;;;;;24.73;12.53;;;22.10;80.80;;;;;;5048281;28;20534;-73
2023/06/22 05:36:10;;;;;;;19.47;10.90;;;22.10;80.50;;;;;;5055527;28;20497;-71
2023/06/22 05:38:36;;;;;;;20.53;11.00;;;22.10;80.80;;;;;;5058956;28;20425;-72
2023/06/22 05:41:02;;;;;;;27.30;12.20;;;22.30;80.30;;;;;;5063402;28;20488;-74
2023/06/22 05:43:28;;;;;;;21.50;11.23;;;22.10;79.70;;;;;;5070012;28;20481;-74
2023/06/22 05:45:53;;;;;;;23.67;12.70;;;22.20;79.90;;;;;;5058784;28;20214;-75
2023/06/22 05:48:22;;;;;;;27.40;11.50;;;22.00;80.30;;;;;;5072923;28;20438;-73
2023/06/22 05:50:48;;;;;;;15.03;9.03;;;22.10;80.30;;;;;;5054140;28;20206;-74
2023/06/22 05:53:14;;;;;;;18.27;10.40;;;22.20;79.70;;;;;;5058340;28;20793;-72
2023/06/22 05:55:39;;;;;;;16.30;9.97;;;22.10;79.50;;;;;;5045315;28;21023;-72
2023/06/22 05:58:05;;;;;;;16.00;10.70;;;22.20;79.20;;;;;;5051487;28;20271;-72
2023/06/22 06:00:31;;;;;;;17.30;10.27;;;22.20;79.20;;;;;;5038153;28;20239;-74
2023/06/22 06:02:56;;;;;;;14.10;9.90;;;22.30;78.70;;;;;;5033543;28;20252;-73
2023/06/22 06:05:23;;;;;;;17.40;8.77;;;22.30;78.60;;;;;;5050080;28;20464;-72
2023/06/22 06:07:49;;;;;;;17.27;10.07;;;22.50;78.40;;;;;;5044292;28;20234;-73
2023/06/22 06:10:15;;;;;;;21.23;10.37;;;22.40;77.60;;;;;;5038529;28;20859;-72
2023/06/22 06:12:40;;;;;;;17.20;10.77;;;22.50;77.70;;;;;;5052420;28;20254;-72
2023/06/22 06:15:06;;;;;;;16.90;10.47;;;22.30;78.30;;;;;;5041452;28;20204;-73
2023/06/22 06:17:32;;;;;;;14.13;9.23;;;22.30;78.30;;;;;;5050219;28;20605;-73
2023/06/22 06:19:59;;;;;;;15.27;9.07;;;22.30;77.80;;;;;;5032407;28;20425;-73
2023/06/22 06:22:25;;;;;;;18.57;9.00;;;22.40;77.70;;;;;;5051153;28;20184;-71
2023/06/22 06:24:50;;;;;;;18.63;9.10;;;22.50;77.70;;;;;;5028092;28;20488;-73
2023/06/22 06:27:19;;;;;;;14.87;8.60;;;22.60;77.30;;;;;;5051372;28;20181;-72
2023/06/22 06:29:48;;;;;;;18.07;9.10;;;22.70;77.40;;;;;;5029458;28;20183;-74
2023/06/22 06:32:14;;;;;;;14.20;8.30;;;22.80;76.70;;;;;;5049104;28;20499;-72
2023/06/22 06:34:40;;;;;;;13.50;8.47;;;22.90;76.50;;;;;;5049330;28;20491;-72
2023/06/22 06:37:06;;;;;;;16.60;9.80;;;23.00;76.20;;;;;;5046287;28;20214;-73
2023/06/22 06:39:31;;;;;;;15.43;9.70;;;23.10;75.80;;;;;;5045427;28;20459;-73
2023/06/22 06:41:57;;;;;;;14.70;9.13;;;23.10;75.20;;;;;;5046555;28;20193;-73
2023/06/22 06:44:22;;;;;;;17.40;8.30;;;22.90;75.80;;;;;;5044701;28;20206;-73
2023/06/22 06:46:48;;;;;;;15.00;8.40;;;23.10;75.70;;;;;;5044052;28;20215;-73
2023/06/22 06:49:14;;;;;;;13.53;7.67;;;23.20;75.20;;;;;;5051129;28;20188;-72
2023/06/22 06:51:39;;;;;;;16.77;8.77;;;23.30;74.80;;;;;;5050869;28;20845;-71
2023/06/22 06:54:05;;;;;;;14.37;8.70;;;23.50;74.20;;;;;;5045873;28;20223;-73
2023/06/22 06:56:32;;;;;;;14.20;8.50;;;23.50;73.70;;;;;;5050545;28;20213;-73
2023/06/22 07:01:35;;;;;;;15.40;8.03;;;23.60;73.50;;;;;;5109330;23;20500;-71
2023/06/22 07:04:01;;;;;;;13.57;7.67;;;23.60;73.60;;;;;;4975794;28;20472;-71
2023/06/22 07:06:29;;;;;;;14.03;7.83;;;23.60;73.50;;;;;;4974832;28;20457;-71
2023/06/22 07:08:55;;;;;;;16.70;8.10;;;23.70;73.20;;;;;;4974330;28;20190;-71
2023/06/22 07:11:21;;;;;;;12.10;7.97;;;23.80;72.60;;;;;;4967178;28;21012;-72
2023/06/22 07:13:46;;;;;;;12.47;8.80;;;23.90;72.40;;;;;;4971528;28;20252;-71
2023/06/22 07:16:12;;;;;;;16.30;8.57;;;24.00;72.00;;;;;;4971659;28;20245;-73
2023/06/22 07:18:40;;;;;;;16.00;8.03;;;24.00;72.10;;;;;;4973267;28;20193;-73
2023/06/22 07:21:06;;;;;;;13.70;8.33;;;24.00;71.70;;;;;;4966001;28;20209;-72
2023/06/22 07:23:32;;;;;;;16.23;7.77;;;24.00;71.80;;;;;;4972017;28;20432;-73
2023/06/22 07:26:01;;;;;;;17.37;8.53;;;24.10;71.80;;;;;;4954207;28;20455;-73
2023/06/22 07:28:27;;;;;;;15.20;8.70;;;24.20;71.40;;;;;;4971953;28;20194;-71
2023/06/22 07:30:53;;;;;;;12.83;8.50;;;24.20;71.30;;;;;;4971045;28;20464;-71
2023/06/22 07:33:19;;;;;;;15.70;7.60;;;24.30;71.60;;;;;;4975593;28;21272;-71
2023/06/22 07:35:45;;;;;;;12.47;8.30;;;24.40;71.00;;;;;;4977838;28;20584;-73
2023/06/22 07:38:10;;;;;;;15.50;8.27;;;24.50;70.70;;;;;;4975846;28;20538;-73
2023/06/22 07:40:36;;;;;;;14.83;7.43;;;24.60;70.20;;;;;;4981984;28;20219;-71
2023/06/22 07:43:03;;;;;;;13.20;8.00;;;24.70;69.90;;;;;;4986985;28;20192;-72
2023/06/22 07:45:29;;;;;;;14.93;6.80;;;24.80;69.80;;;;;;4983522;28;20188;-70
2023/06/22 07:47:55;;;;;;;14.43;8.20;;;24.90;69.50;;;;;;4980759;28;20482;-71
2023/06/22 07:50:20;;;;;;;12.53;7.43;;;25.10;68.90;;;;;;4976518;28;20548;-72
2023/06/22 07:52:47;;;;;;;12.83;6.53;;;24.80;69.20;;;;;;4977933;28;20573;-70
2023/06/22 07:55:13;;;;;;;10.27;6.83;;;25.00;69.50;;;;;;4977874;28;20299;-72
2023/06/22 07:57:39;;;;;;;11.63;7.73;;;25.10;68.90;;;;;;4979891;28;20430;-71
2023/06/22 08:00:15;;;;;;;13.63;7.13;;;25.30;68.50;;;;;;4973448;28;20464;-72
2023/06/22 08:02:42;;;;;;;14.33;7.20;;;25.40;68.20;;;;;;4973144;28;20256;-73
2023/06/22 08:05:08;;;;;;;14.80;6.90;;;25.50;67.60;;;;;;4973560;28;20429;-71
2023/06/22 08:07:37;;;;;;;15.07;7.43;;;25.50;67.60;;;;;;4971215;28;20496;-72
2023/06/22 08:10:03;;;;;;;14.10;7.50;;;25.60;67.30;;;;;;4956189;28;20905;-74
2023/06/22 08:12:29;;;;;;;13.57;7.23;;;25.60;67.50;;;;;;4980810;28;20520;-73
2023/06/22 08:14:56;;;;;;;14.63;7.73;;;25.60;67.30;;;;;;4977598;28;20853;-71
2023/06/22 08:17:23;;;;;;;12.73;7.40;;;25.60;67.50;;;;;;4968138;28;20710;-72
2023/06/22 08:19:48;;;;;;;13.20;7.60;;;25.70;67.50;;;;;;4974508;28;20826;-72
2023/06/22 08:22:15;;;;;;;13.90;7.67;;;25.80;67.30;;;;;;4975554;28;20437;-72
2023/06/22 08:24:41;;;;;;;13.57;7.40;;;25.80;67.00;;;;;;4975365;28;20347;-71
2023/06/22 08:27:14;;;;;;;13.10;6.37;;;26.00;66.30;;;;;;4975271;28;20527;-72
2023/06/22 08:29:45;;;;;;;11.37;6.90;;;26.30;66.00;;;;;;4973695;28;20775;-71
2023/06/22 08:32:11;;;;;;;12.00;7.30;;;26.60;65.00;;;;;;4977247;28;20438;-72
2023/06/22 08:34:37;;;;;;;13.03;7.47;;;26.80;64.50;;;;;;4978605;28;20500;-71
2023/06/22 08:37:06;;;;;;;15.20;7.90;;;26.80;63.90;;;;;;4980671;28;20476;-71
2023/06/22 08:39:32;;;;;;;10.53;6.60;;;26.80;63.80;;;;;;4958625;28;20227;-72
2023/06/22 08:41:57;;;;;;;15.67;7.87;;;27.20;63.50;;;;;;4975148;28;20440;-72
2023/06/22 08:44:23;;;;;;;16.63;6.80;;;27.60;62.60;;;;;;4982090;28;20426;-72
2023/06/22 08:46:49;;;;;;;12.33;6.40;;;27.80;62.60;;;;;;4974859;28;20611;-73
2023/06/22 08:49:15;;;;;;;9.23;5.73;;;27.80;62.60;;;;;;4974395;28;20554;-71
2023/06/22 08:51:40;;;;;;;7.83;5.30;;;28.10;62.20;;;;;;4968767;28;20219;-72
2023/06/22 08:54:06;;;;;;;13.70;6.77;;;28.40;62.20;;;;;;4974626;28;20440;-73
2023/06/22 08:56:31;;;;;;;12.90;6.87;;;28.60;61.00;;;;;;4974912;28;20230;-70
2023/06/22 08:58:57;;;;;;;12.50;7.10;;;28.70;60.60;;;;;;4973705;28;20203;-72
2023/06/22 09:01:23;;;;;;;12.27;6.77;;;28.30;61.50;;;;;;4973216;28;20314;-72
2023/06/22 09:03:54;;;;;;;10.30;6.30;;;28.50;61.00;;;;;;4974674;28;20289;-72
2023/06/22 09:06:21;;;;;;;12.83;7.00;;;28.60;61.30;;;;;;4974330;28;20568;-72
2023/06/22 09:08:47;;;;;;;14.10;6.77;;;28.40;61.60;;;;;;4974142;28;20526;-71
2023/06/22 09:11:13;;;;;;;12.57;7.37;;;28.20;62.30;;;;;;4978027;28;20469;-72
2023/06/22 09:13:39;;;;;;;12.13;6.70;;;28.20;62.50;;;;;;4975808;28;20435;-71
2023/06/22 09:16:04;;;;;;;13.20;6.40;;;28.40;62.50;;;;;;4976522;28;20225;-74
2023/06/22 09:18:30;;;;;;;12.27;6.57;;;28.50;62.00;;;;;;4977228;28;20192;-70
2023/06/22 09:20:56;;;;;;;12.70;6.90;;;28.70;61.70;;;;;;4974406;28;20223;-71
2023/06/22 09:23:22;;;;;;;12.80;6.90;;;28.80;61.70;;;;;;4976569;28;20187;-72
2023/06/22 09:25:47;;;;;;;14.67;6.80;;;28.80;60.90;;;;;;4974273;28;20206;-71
2023/06/22 09:28:14;;;;;;;16.13;7.20;;;28.60;61.60;;;;;;4973920;28;20194;-71
2023/06/22 09:30:40;;;;;;;17.43;7.67;;;28.70;61.60;;;;;;4971990;28;20658;-72
2023/06/22 09:33:05;;;;;;;13.40;6.67;;;28.80;61.00;;;;;;4973692;28;20431;-70
2023/06/22 09:35:31;;;;;;;13.40;6.90;;;28.70;61.60;;;;;;4973294;28;20262;-72
2023/06/22 09:37:56;;;;;;;14.07;7.03;;;28.70;61.50;;;;;;4973436;28;20268;-71
2023/06/22 09:40:22;;;;;;;19.43;6.53;;;28.80;61.50;;;;;;4971147;28;20211;-72
2023/06/22 09:42:47;;;;;;;11.13;6.37;;;28.90;61.20;;;;;;4967999;28;20218;-70
2023/06/22 09:45:13;;;;;;;12.80;6.83;;;29.00;61.00;;;;;;4973071;28;20666;-71
2023/06/22 09:47:39;;;;;;;14.47;7.90;;;29.00;60.70;;;;;;4973170;28;20250;-71
2023/06/22 09:50:05;;;;;;;18.87;7.40;;;28.90;61.00;;;;;;4969811;28;20230;-72
2023/06/22 09:52:31;;;;;;;10.77;6.90;;;28.50;61.90;;;;;;4973656;28;20266;-71
2023/06/22 09:54:56;;;;;;;12.67;7.20;;;28.50;61.90;;;;;;4974125;28;21044;-72
2023/06/22 09:57:22;;;;;;;11.70;6.50;;;28.50;62.30;;;;;;4958474;28;20215;-73
2023/06/22 09:59:47;;;;;;;12.57;6.87;;;28.70;61.90;;;;;;4973392;28;20211;-72
2023/06/22 10:02:13;;;;;;;15.47;7.57;;;28.80;61.90;;;;;;4972705;28;20184;-72
2023/06/22 10:04:42;;;;;;;9.40;6.43;;;29.00;61.20;;;;;;4973488;28;20191;-72
2023/06/22 10:07:07;;;;;;;15.00;6.80;;;29.20;61.00;;;;;;4973731;28;20539;-71
2023/06/22 10:09:33;;;;;;;18.77;7.53;;;29.40;60.40;;;;;;4971354;28;20936;-72
2023/06/22 10:11:58;;;;;;;16.70;7.80;;;29.70;59.90;;;;;;4972684;28;20204;-71
2023/06/22 10:14:24;;;;;;;15.70;7.10;;;29.90;59.60;;;;;;4964220;28;20192;-73
2023/06/22 10:16:52;;;;;;;14.40;7.03;;;30.10;59.10;;;;;;4956424;28;20598;-72
2023/06/22 10:19:20;;;;;;;11.70;7.40;;;30.40;58.50;;;;;;4957337;28;20187;-70
2023/06/22 10:21:46;;;;;;;13.40;7.00;;;30.60;58.10;;;;;;4970216;28;20538;-73
2023/06/22 10:24:12;;;;;;;19.43;7.90;;;30.90;57.60;;;;;;4974399;28;20869;-71
2023/06/22 10:26:37;;;;;;;15.80;7.23;;;31.10;56.60;;;;;;4975056;28;20612;-72
2023/06/22 10:29:03;;;;;;;14.80;7.30;;;31.30;56.50;;;;;;4976809;28;20210;-72
2023/06/22 10:31:29;;;;;;;13.20;8.07;;;31.30;56.40;;;;;;4971135;28;20537;-73
2023/06/22 10:33:55;;;;;;;15.07;6.33;;;31.50;56.10;;;;;;4970908;28;20243;-71
2023/06/22 10:36:26;;;;;;;13.27;7.70;;;31.60;56.00;;;;;;4972115;28;20214;-71
2023/06/22 10:38:53;;;;;;;14.50;6.77;;;31.60;55.60;;;;;;4956672;28;20419;-71
2023/06/22 10:41:18;;;;;;;16.77;8.57;;;31.40;56.20;;;;;;4970875;28;20455;-72
2023/06/22 10:43:44;;;;;;;16.73;7.40;;;31.80;55.00;;;;;;4971863;28;20427;-70
2023/06/22 10:46:09;;;;;;;14.87;7.90;;;32.00;54.80;;;;;;4969944;28;20215;-73
2023/06/22 10:48:35;;;;;;;15.50;6.90;;;32.40;53.60;;;;;;4971830;28;20191;-72
2023/06/22 10:51:01;;;;;;;15.80;7.40;;;32.80;52.90;;;;;;4970696;28;20693;-71
2023/06/22 10:53:26;;;;;;;14.57;7.00;;;33.00;52.50;;;;;;4971770;28;20183;-72
2023/06/22 10:55:53;;;;;;;16.00;7.30;;;33.00;52.10;;;;;;4971668;28;20203;-71
2023/06/22 10:58:19;;;;;;;18.70;7.60;;;33.00;52.40;;;;;;4971714;28;20194;-72
2023/06/22 11:00:45;;;;;;;16.87;7.40;;;32.90;52.90;;;;;;4969998;28;20458;-72
2023/06/22 11:03:10;;;;;;;19.50;8.03;;;32.80;53.30;;;;;;4975703;28;20486;-71
2023/06/22 11:05:36;;;;;;;12.53;8.83;;;32.90;53.80;;;;;;4971459;28;20466;-73
2023/06/22 11:08:02;;;;;;;14.47;6.77;;;33.00;53.30;;;;;;4971911;28;20203;-72
2023/06/22 11:10:27;;;;;;;18.80;7.30;;;32.90;53.60;;;;;;4969494;28;20229;-73
2023/06/22 11:12:53;;;;;;;13.83;7.67;;;33.00;53.60;;;;;;4971645;28;20194;-71
2023/06/22 11:15:19;;;;;;;13.57;6.97;;;32.90;53.30;;;;;;4971037;28;20579;-72
2023/06/22 11:17:44;;;;;;;18.93;7.27;;;32.90;52.80;;;;;;4970094;28;20206;-71
2023/06/22 11:20:10;;;;;;;11.23;7.23;;;32.70;53.20;;;;;;4952450;28;20560;-72
2023/06/22 11:22:40;;;;;;;14.10;7.03;;;32.70;53.00;;;;;;4986895;28;20180;-70
2023/06/22 11:25:06;;;;;;;14.80;7.80;;;32.60;52.90;;;;;;4970042;28;20435;-72
2023/06/22 11:27:31;;;;;;;17.67;9.00;;;32.40;53.00;;;;;;4969818;28;20441;-72
2023/06/22 11:29:57;;;;;;;13.13;7.20;;;32.30;53.80;;;;;;4968518;28;20561;-72
2023/06/22 11:32:23;;;;;;;17.30;8.80;;;32.40;53.60;;;;;;4970077;28;20215;-70
2023/06/22 11:34:49;;;;;;;14.77;8.30;;;32.00;54.60;;;;;;4970207;28;20187;-71
2023/06/22 11:37:15;;;;;;;17.53;8.27;;;32.10;55.20;;;;;;4971862;28;20215;-72
2023/06/22 11:39:41;;;;;;;16.43;8.13;;;32.00;55.20;;;;;;4969800;28;20684;-71
2023/06/22 11:42:07;;;;;;;22.30;8.50;;;31.50;56.50;;;;;;4958460;28;20431;-71
2023/06/22 11:44:32;;;;;;;16.63;8.73;;;31.70;56.50;;;;;;4972429;28;20856;-71
2023/06/22 11:46:58;;;;;;;14.13;7.70;;;32.20;55.70;;;;;;4972281;28;20187;-71
2023/06/22 11:49:24;;;;;;;14.27;8.37;;;32.50;54.90;;;;;;4969234;28;20258;-72
2023/06/22 11:51:49;;;;;;;12.13;7.60;;;32.80;54.50;;;;;;4972386;28;20342;-71
2023/06/22 11:54:15;;;;;;;16.93;7.97;;;33.00;54.20;;;;;;4976085;28;20195;-72
2023/06/22 11:56:40;;;;;;;13.17;8.13;;;32.80;54.40;;;;;;4960276;28;20211;-71
2023/06/22 11:59:06;;;;;;;16.10;7.93;;;33.00;54.10;;;;;;4976059;28;20680;-72
2023/06/22 12:01:33;;;;;;;14.63;7.60;;;33.00;53.30;;;;;;4975225;28;20241;-70
2023/06/22 12:03:58;;;;;;;15.60;7.70;;;32.70;53.60;;;;;;4974504;28;20632;-72
2023/06/22 12:06:24;;;;;;;15.53;7.73;;;32.80;53.70;;;;;;4973003;28;20497;-72
2023/06/22 12:08:49;;;;;;;12.97;6.77;;;32.90;54.10;;;;;;4972241;28;20188;-72
2023/06/22 12:11:15;;;;;;;13.20;7.30;;;33.00;52.20;;;;;;4970625;28;20235;-72
2023/06/22 12:13:40;;;;;;;17.50;7.60;;;32.80;52.20;;;;;;4973339;28;20192;-73
2023/06/22 12:16:06;;;;;;;16.60;8.30;;;32.90;53.00;;;;;;4956198;28;20242;-72
2023/06/22 12:18:32;;;;;;;23.30;9.37;;;32.90;52.90;;;;;;4976113;28;20195;-72
2023/06/22 12:20:58;;;;;;;17.77;7.13;;;32.70;53.20;;;;;;4974677;28;20235;-71
2023/06/22 12:23:23;;;;;;;10.67;7.03;;;32.50;54.20;;;;;;4975909;28;20430;-72
2023/06/22 12:25:49;;;;;;;18.23;8.43;;;32.70;54.90;;;;;;4975169;28;20203;-72
2023/06/22 12:28:14;;;;;;;15.47;7.50;;;32.80;53.00;;;;;;4956262;28;20590;-71
2023/06/22 12:30:40;;;;;;;17.90;8.60;;;32.50;54.00;;;;;;4971173;28;20262;-72
2023/06/22 12:33:06;;;;;;;19.07;8.73;;;32.40;54.40;;;;;;4987413;28;20658;-72
2023/06/22 12:35:31;;;;;;;26.73;8.03;;;32.10;55.00;;;;;;4972571;28;20198;-71